Time;durP1;ratioP1;P1;durP2;ratioP2;P2;SDS_P1;SDS_P2;PMS_P1;PMS_P2;Temp;Humidity;BMP_temperature;BMP_pressure;BME280_temperature;BME280_humidity;BME280_pressure;Samples;Min_cycle;Max_cycle;Signal;HPM_P1;HPM_P2
2021/12/29 00:01:29;;;;;;;2.60;1.98;;;;;;;19.09;39.81;101020.81;4163280;28;20045;-45
2021/12/29 00:03:30;;;;;;;2.45;1.88;;;;;;;19.08;40.01;101020.00;4163207;28;20041;-45
2021/12/29 00:05:32;;;;;;;2.65;2.08;;;;;;;19.10;40.12;101033.59;4163376;28;20103;-46
2021/12/29 00:07:33;;;;;;;2.10;1.80;;;;;;;19.09;39.87;101032.75;4163500;28;20111;-46
2021/12/29 00:09:36;;;;;;;2.97;1.80;;;;;;;19.10;40.00;101016.94;4163332;28;20115;-45
2021/12/29 00:11:40;;;;;;;2.10;1.90;;;;;;;19.09;39.98;101010.56;4163159;28;20080;-47
2021/12/29 00:13:42;;;;;;;2.80;2.00;;;;;;;19.11;40.14;100997.28;4163195;28;20543;-45
2021/12/29 00:15:43;;;;;;;2.22;2.00;;;;;;;19.11;39.73;100969.53;4163249;28;20041;-46
2021/12/29 00:17:46;;;;;;;2.40;2.00;;;;;;;19.12;39.77;100967.59;4163226;28;20087;-49
2021/12/29 00:19:47;;;;;;;2.30;2.10;;;;;;;19.12;40.12;100965.66;4163500;28;20469;-46
2021/12/29 00:21:49;;;;;;;2.50;2.10;;;;;;;19.11;39.64;100969.53;4163045;28;20038;-46
2021/12/29 00:23:50;;;;;;;3.35;2.03;;;;;;;19.13;39.72;100978.41;4163032;28;20041;-46
2021/12/29 00:25:52;;;;;;;2.50;1.95;;;;;;;19.14;39.98;100995.91;4163898;28;20042;-49
2021/12/29 00:27:58;;;;;;;2.97;2.17;;;;;;;19.15;40.02;101003.09;4163758;28;20037;-48
2021/12/29 00:30:00;;;;;;;2.28;2.00;;;;;;;19.15;39.77;101003.09;4163159;28;20091;-47
2021/12/29 00:32:01;;;;;;;2.13;1.88;;;;;;;19.12;40.03;101015.59;4163257;28;20107;-45
2021/12/29 00:34:03;;;;;;;2.20;1.95;;;;;;;19.14;39.83;101016.16;4163887;28;20381;-44
2021/12/29 00:36:04;;;;;;;2.45;2.20;;;;;;;19.14;40.02;101024.47;4163637;28;20041;-47
2021/12/29 00:38:06;;;;;;;2.28;1.95;;;;;;;19.14;39.83;101016.16;4162760;28;20042;-47
2021/12/29 00:40:10;;;;;;;2.50;2.10;;;;;;;19.14;39.91;101024.47;4163342;28;20041;-48
2021/12/29 00:42:14;;;;;;;3.15;1.88;;;;;;;19.09;39.84;101027.22;4163984;28;20535;-45
2021/12/29 00:44:15;;;;;;;2.45;2.15;;;;;;;19.16;39.92;101044.47;4164029;28;20064;-51
2021/12/29 00:46:18;;;;;;;2.25;1.90;;;;;;;19.16;39.76;101066.66;4163836;28;20022;-46
2021/12/29 00:48:20;;;;;;;2.85;2.03;;;;;;;19.16;39.92;101061.13;4163148;28;20080;-45
2021/12/29 00:50:22;;;;;;;2.63;2.00;;;;;;;19.16;40.03;101050.03;4164014;28;20183;-49
2021/12/29 00:52:23;;;;;;;2.70;1.95;;;;;;;19.16;39.84;101083.31;4163614;28;20424;-45
2021/12/29 00:54:25;;;;;;;2.13;1.85;;;;;;;19.10;39.81;101084.34;4164529;28;20099;-45
2021/12/29 00:56:27;;;;;;;2.33;2.13;;;;;;;19.16;39.76;101099.94;4166271;28;20045;-46
2021/12/29 00:58:29;;;;;;;3.38;2.20;;;;;;;19.16;39.68;101094.41;4166370;28;20033;-45
2021/12/29 01:00:31;;;;;;;2.00;1.75;;;;;;;19.16;40.22;101088.84;4166144;28;20115;-45
2021/12/29 01:02:33;;;;;;;2.80;2.15;;;;;;;19.15;39.85;101053.91;4166620;28;20100;-45
2021/12/29 01:04:34;;;;;;;2.42;1.90;;;;;;;19.11;39.75;101030.56;4166417;28;20045;-46
2021/12/29 01:06:36;;;;;;;2.83;1.90;;;;;;;19.15;39.77;101048.34;4165951;28;20091;-46
2021/12/29 01:08:40;;;;;;;2.50;2.20;;;;;;;19.15;40.11;101037.25;4180745;28;20037;-45
2021/12/29 01:10:42;;;;;;;2.88;2.20;;;;;;;19.16;40.15;100988.16;4166534;28;20041;-46
2021/12/29 01:12:52;;;;;;;2.22;1.80;;;;;;;19.14;39.69;100990.34;4166314;28;20033;-47
2021/12/29 01:14:54;;;;;;;2.25;2.05;;;;;;;19.15;40.04;101028.94;4165377;28;20045;-48
2021/12/29 01:16:58;;;;;;;3.00;1.90;;;;;;;19.15;39.80;101011.44;4166041;28;20095;-45
2021/12/29 01:19:06;;;;;;;3.22;2.10;;;;;;;19.18;40.01;101031.16;4165897;28;20084;-47
2021/12/29 01:21:07;;;;;;;2.47;2.00;;;;;;;19.19;39.99;101059.72;4165514;28;20443;-46
2021/12/29 01:23:09;;;;;;;3.00;2.15;;;;;;;19.18;39.98;101094.97;4165018;28;20053;-44
2021/12/29 01:25:10;;;;;;;2.80;1.77;;;;;;;19.15;39.69;101103.84;4165761;28;20126;-44
2021/12/29 01:27:16;;;;;;;1.95;1.80;;;;;;;19.19;39.76;101093.84;4166108;28;20107;-49
2021/12/29 01:29:18;;;;;;;3.17;2.10;;;;;;;19.20;39.89;101111.34;4165386;28;20095;-49
2021/12/29 01:31:19;;;;;;;2.42;1.80;;;;;;;19.19;39.84;101107.72;4165945;28;20083;-46
2021/12/29 01:33:22;;;;;;;2.08;1.80;;;;;;;19.19;39.62;101070.81;4165590;28;20839;-47
2021/12/29 01:35:24;;;;;;;2.00;1.80;;;;;;;19.18;39.58;101089.41;4165959;28;20096;-46
2021/12/29 01:37:25;;;;;;;1.98;1.77;;;;;;;19.18;40.03;101119.09;4165683;28;20481;-46
2021/12/29 01:39:26;;;;;;;2.70;2.00;;;;;;;19.18;40.09;101138.50;4163901;28;20516;-45
2021/12/29 01:41:28;;;;;;;2.25;1.70;;;;;;;19.17;39.92;101170.97;4165796;28;20053;-45
2021/12/29 01:43:29;;;;;;;2.35;2.13;;;;;;;19.17;39.69;101184.84;4164960;28;20054;-45
2021/12/29 01:45:31;;;;;;;4.05;2.97;;;;;;;19.18;39.90;101175.41;4164842;28;20041;-49
2021/12/29 01:47:33;;;;;;;2.50;2.30;;;;;;;19.18;39.60;101156.00;4164598;28;20037;-47
2021/12/29 01:49:35;;;;;;;2.63;2.10;;;;;;;19.16;39.60;101127.69;4165765;28;20083;-50
2021/12/29 01:51:42;;;;;;;2.60;2.20;;;;;;;19.17;39.28;101087.75;4165169;28;20041;-44
2021/12/29 01:53:49;;;;;;;2.17;1.90;;;;;;;19.18;39.42;101053.34;4165592;28;20045;-46
2021/12/29 01:55:51;;;;;;;2.55;1.85;;;;;;;19.18;39.59;101069.16;4164804;28;20115;-48
2021/12/29 01:57:54;;;;;;;2.50;1.95;;;;;;;19.18;39.54;101052.50;4164713;28;20042;-46
2021/12/29 01:59:55;;;;;;;2.50;2.30;;;;;;;19.14;39.92;101035.56;4164599;28;20481;-46
2021/12/29 02:01:57;;;;;;;2.05;1.88;;;;;;;19.15;39.75;101020.63;4165258;28;20099;-49
2021/12/29 02:04:00;;;;;;;2.92;2.03;;;;;;;19.14;39.71;101023.63;4164856;28;20338;-47
2021/12/29 02:06:01;;;;;;;2.88;2.08;;;;;;;19.10;39.72;101050.22;4164996;28;20059;-47
2021/12/29 02:08:04;;;;;;;2.20;1.95;;;;;;;19.15;39.72;101048.34;4165154;28;20025;-47
2021/12/29 02:10:07;;;;;;;2.50;1.88;;;;;;;19.16;39.62;101022.28;4164665;28;20704;-48
2021/12/29 02:12:09;;;;;;;2.63;2.13;;;;;;;19.15;40.02;100992.88;4164919;28;20041;-52
2021/12/29 02:14:14;;;;;;;2.50;1.98;;;;;;;19.16;39.75;101005.63;4164558;28;20088;-46
2021/12/29 02:16:15;;;;;;;2.78;2.50;;;;;;;19.15;39.49;101012.28;4163730;28;20041;-44
2021/12/29 02:18:21;;;;;;;2.38;2.05;;;;;;;19.15;39.78;100997.56;4164459;28;20041;-45
2021/12/29 02:20:23;;;;;;;2.55;1.83;;;;;;;19.14;39.91;100985.63;4164592;28;20041;-46
2021/12/29 02:22:40;;;;;;;2.47;1.92;;;;;;;19.15;39.54;100976.22;4164236;28;20481;-44
2021/12/29 02:24:44;;;;;;;2.55;2.00;;;;;;;19.15;39.42;100981.78;4165601;28;20115;-45
2021/12/29 02:26:46;;;;;;;3.78;2.38;;;;;;;19.16;39.92;100972.34;4165101;28;20487;-48
2021/12/29 02:28:48;;;;;;;2.38;2.17;;;;;;;19.15;39.91;100964.28;4164818;28;20029;-46
2021/12/29 02:30:50;;;;;;;3.33;2.33;;;;;;;19.15;39.47;100964.28;4164993;28;20050;-46
2021/12/29 02:32:59;;;;;;;2.13;1.92;;;;;;;19.15;39.64;100976.22;4165003;28;20091;-48
2021/12/29 02:35:01;;;;;;;2.20;1.98;;;;;;;19.12;39.62;100975.94;4164788;28;20512;-46
2021/12/29 02:37:03;;;;;;;2.85;2.42;;;;;;;19.11;39.52;100958.44;4179611;28;20095;-45
2021/12/29 02:39:05;;;;;;;2.42;2.22;;;;;;;19.12;39.80;100960.13;4164259;28;20473;-46
2021/12/29 02:41:08;;;;;;;2.55;2.13;;;;;;;19.12;39.73;100985.09;4164480;28;20461;-46
2021/12/29 02:43:12;;;;;;;2.40;2.10;;;;;;;18.87;39.80;100943.31;4164930;28;20547;-48
2021/12/29 02:45:19;;;;;;;2.92;2.38;;;;;;;19.06;39.41;100966.75;4164548;28;20037;-45
2021/12/29 02:47:21;;;;;;;2.50;2.30;;;;;;;19.08;39.99;100970.06;4164782;28;20448;-45
2021/12/29 02:49:23;;;;;;;3.63;2.35;;;;;;;19.11;39.63;100975.09;4164044;28;20037;-45
2021/12/29 02:51:26;;;;;;;2.40;2.20;;;;;;;19.11;39.82;100985.34;4164518;28;20587;-46
2021/12/29 02:53:30;;;;;;;2.38;2.10;;;;;;;19.10;39.97;100990.03;4164318;28;20041;-45
2021/12/29 02:55:32;;;;;;;2.40;2.13;;;;;;;19.11;39.73;101002.84;4164409;28;20451;-46
2021/12/29 02:57:36;;;;;;;2.42;2.13;;;;;;;19.08;39.89;100992.25;4164669;28;20080;-45
2021/12/29 02:59:40;;;;;;;2.50;2.10;;;;;;;19.10;39.49;101005.84;4164693;28;20038;-45
2021/12/29 03:01:42;;;;;;;2.78;2.25;;;;;;;19.11;39.63;101040.84;4164745;28;20421;-44
2021/12/29 03:03:44;;;;;;;2.40;2.20;;;;;;;19.11;39.59;101063.84;4164841;28;20029;-47
2021/12/29 03:05:48;;;;;;;2.63;2.08;;;;;;;19.09;39.56;101068.81;4163725;28;20464;-47
2021/12/29 03:07:50;;;;;;;2.38;2.17;;;;;;;19.06;39.66;101063.81;4163697;28;20045;-47
2021/12/29 03:09:51;;;;;;;2.63;2.42;;;;;;;19.08;39.82;101069.94;4163900;28;20107;-46
2021/12/29 03:11:53;;;;;;;2.60;2.25;;;;;;;19.05;39.91;101054.63;4164468;28;20050;-46
2021/12/29 03:13:54;;;;;;;3.55;2.35;;;;;;;19.09;39.72;101054.94;4163666;28;20037;-45
2021/12/29 03:15:57;;;;;;;2.38;2.17;;;;;;;19.07;39.66;101062.72;4161964;28;20045;-46
2021/12/29 03:17:58;;;;;;;2.78;2.33;;;;;;;19.08;39.74;101094.88;4163515;28;20369;-46
2021/12/29 03:19:59;;;;;;;3.28;2.28;;;;;;;19.09;39.96;101115.97;4163962;28;20083;-44
2021/12/29 03:22:01;;;;;;;2.58;2.22;;;;;;;19.08;39.69;101117.06;4164550;28;20045;-46
2021/12/29 03:24:04;;;;;;;2.95;2.42;;;;;;;19.04;39.93;101104.84;4164830;28;20087;-47
2021/12/29 03:26:06;;;;;;;2.45;2.25;;;;;;;19.04;39.95;101097.34;4163892;28;20477;-46
2021/12/29 03:28:09;;;;;;;2.78;2.22;;;;;;;18.97;39.81;101071.78;4164024;28;20106;-49
2021/12/29 03:30:10;;;;;;;2.85;2.10;;;;;;;19.05;39.95;101070.44;4164766;28;20389;-43
2021/12/29 03:32:21;;;;;;;3.17;2.33;;;;;;;19.05;39.77;101068.50;4164487;28;20030;-48
2021/12/29 03:34:22;;;;;;;2.72;2.03;;;;;;;19.03;39.82;101064.34;4164029;28;20041;-46
2021/12/29 03:36:24;;;;;;;2.65;2.45;;;;;;;19.06;39.71;101077.69;4178975;28;20045;-47
2021/12/29 03:38:26;;;;;;;2.58;2.30;;;;;;;19.02;39.63;101065.44;4163558;28;20041;-47
2021/12/29 03:40:28;;;;;;;2.17;2.00;;;;;;;19.04;39.96;101082.66;4163583;28;20049;-46
2021/12/29 03:42:30;;;;;;;2.92;2.17;;;;;;;19.03;39.93;101061.56;4162429;28;20469;-46
2021/12/29 03:44:31;;;;;;;2.83;2.50;;;;;;;19.02;39.85;101048.81;4162695;28;20111;-46
2021/12/29 03:46:33;;;;;;;2.30;2.10;;;;;;;19.02;39.83;101033.00;4164789;28;20099;-45
2021/12/29 03:48:37;;;;;;;2.60;2.40;;;;;;;19.01;39.52;101022.16;4164065;28;20037;-44
2021/12/29 03:50:39;;;;;;;2.63;2.35;;;;;;;19.01;39.88;101019.38;4164083;28;20026;-44
2021/12/29 03:52:40;;;;;;;2.42;2.10;;;;;;;19.02;39.68;101024.69;4164211;28;20087;-45
2021/12/29 03:54:42;;;;;;;3.08;2.45;;;;;;;18.94;39.75;101007.69;4178835;28;20114;-46
2021/12/29 03:56:43;;;;;;;2.28;2.08;;;;;;;19.01;39.62;101024.94;4164487;28;20029;-45
2021/12/29 03:58:45;;;;;;;3.00;2.25;;;;;;;19.00;39.79;101020.47;4163796;28;20092;-48
2021/12/29 04:00:48;;;;;;;2.78;2.45;;;;;;;18.99;39.55;101022.44;4163822;28;20447;-46
2021/12/29 04:02:50;;;;;;;3.05;2.38;;;;;;;18.97;39.74;101019.09;4163996;28;20072;-47
2021/12/29 04:04:52;;;;;;;3.03;2.50;;;;;;;19.00;39.88;101017.72;4163722;28;20045;-47
2021/12/29 04:06:53;;;;;;;2.10;1.90;;;;;;;18.92;39.92;100977.47;4163693;28;20041;-44
2021/12/29 04:08:55;;;;;;;2.90;2.40;;;;;;;18.98;39.60;100984.72;4163315;28;20038;-45
2021/12/29 04:10:57;;;;;;;3.00;2.70;;;;;;;18.91;39.99;100981.31;4164062;28;20078;-45
2021/12/29 04:12:59;;;;;;;2.80;2.25;;;;;;;18.96;39.60;100989.66;4163447;28;20115;-47
2021/12/29 04:15:00;;;;;;;2.35;2.13;;;;;;;18.95;39.58;100978.84;4164243;28;20038;-44
2021/12/29 04:17:09;;;;;;;2.63;2.30;;;;;;;18.94;39.97;100986.34;4164156;28;20087;-47
2021/12/29 04:19:29;;;;;;;2.83;2.08;;;;;;;18.94;39.85;100982.75;4162739;28;20539;-45
2021/12/29 04:21:30;;;;;;;3.05;2.40;;;;;;;18.92;39.76;100982.16;4163389;28;20072;-45
2021/12/29 04:23:35;;;;;;;2.70;2.33;;;;;;;18.89;39.78;100966.91;4163920;28;20045;-47
2021/12/29 04:25:38;;;;;;;3.03;2.47;;;;;;;18.92;40.18;100959.97;4163927;28;20079;-45
2021/12/29 04:27:39;;;;;;;2.83;2.40;;;;;;;18.93;39.76;100961.66;4162798;28;20034;-45
2021/12/29 04:29:40;;;;;;;3.40;2.70;;;;;;;18.93;40.23;100967.22;4166680;28;20095;-46
2021/12/29 04:31:43;;;;;;;2.70;2.13;;;;;;;18.84;40.00;100953.00;4166009;28;20041;-46
2021/12/29 04:33:53;;;;;;;3.17;2.10;;;;;;;17.99;39.63;100817.09;4166113;28;20037;-50
2021/12/29 04:35:55;;;;;;;2.60;2.20;;;;;;;18.88;40.05;100959.69;4167081;28;20042;-47
2021/12/29 04:37:56;;;;;;;2.78;2.47;;;;;;;18.90;39.97;100956.63;4166504;28;20115;-43
2021/12/29 04:39:58;;;;;;;2.67;2.28;;;;;;;18.88;39.97;100948.59;4167076;28;20546;-45
2021/12/29 04:41:59;;;;;;;2.70;2.25;;;;;;;18.89;39.92;100944.72;4166672;28;20102;-46
2021/12/29 04:44:01;;;;;;;2.30;2.10;;;;;;;18.89;40.04;100946.66;4166829;28;20362;-45
2021/12/29 04:46:03;;;;;;;2.75;2.45;;;;;;;18.89;40.10;100935.56;4166895;28;20091;-45
2021/12/29 04:48:11;;;;;;;3.17;2.45;;;;;;;18.89;39.71;100913.38;4166634;28;20021;-47
2021/12/29 04:50:36;;;;;;;3.08;2.17;;;;;;;18.88;39.70;100903.41;4166658;28;20049;-48
2021/12/29 04:52:37;;;;;;;3.00;2.67;;;;;;;18.88;39.96;100901.47;4166443;28;20077;-45
2021/12/29 04:54:39;;;;;;;2.40;2.13;;;;;;;18.86;40.02;100905.59;4166227;28;20042;-46
2021/12/29 04:56:44;;;;;;;2.85;2.30;;;;;;;18.79;39.62;100894.75;4166408;28;20115;-50
2021/12/29 04:58:45;;;;;;;3.08;2.65;;;;;;;18.85;39.87;100901.16;4166218;28;20420;-48
2021/12/29 05:00:51;;;;;;;3.00;2.17;;;;;;;18.79;40.09;100884.50;4166368;28;20033;-47
2021/12/29 05:02:54;;;;;;;2.70;2.33;;;;;;;18.85;39.82;100887.28;4166998;28;20072;-45
2021/12/29 05:04:59;;;;;;;3.13;2.40;;;;;;;18.84;40.22;100896.72;4166702;28;20042;-45
2021/12/29 05:09:22;;;;;;;3.22;2.38;;;;;;;18.84;39.83;100885.63;4166669;28;20099;-47
2021/12/29 05:11:23;;;;;;;2.88;2.65;;;;;;;18.86;40.08;100886.19;4166714;28;20099;-46
2021/12/29 05:13:26;;;;;;;2.67;2.30;;;;;;;18.81;39.75;100858.44;4165486;28;20045;-46
2021/12/29 05:15:28;;;;;;;3.00;2.33;;;;;;;18.83;39.89;100846.00;4166235;28;20110;-48
2021/12/29 05:17:32;;;;;;;2.88;2.55;;;;;;;18.85;39.70;100817.97;4166330;28;20099;-45
2021/12/29 05:19:34;;;;;;;3.45;2.78;;;;;;;18.87;40.04;100815.75;4165602;28;20103;-46
2021/12/29 05:21:35;;;;;;;3.10;2.55;;;;;;;18.86;39.86;100816.88;4165470;28;20041;-45
2021/12/29 05:23:36;;;;;;;3.10;2.35;;;;;;;18.85;40.12;100817.97;4165323;28;20100;-47
2021/12/29 05:25:38;;;;;;;2.63;2.28;;;;;;;18.85;39.68;100809.66;4166184;28;20123;-44
2021/12/29 05:27:42;;;;;;;4.05;3.05;;;;;;;18.85;39.76;100798.56;4165267;28;20037;-45
2021/12/29 05:29:43;;;;;;;2.95;2.40;;;;;;;18.84;39.65;100802.47;4181014;28;20041;-48
2021/12/29 05:31:45;;;;;;;3.03;2.03;;;;;;;18.84;39.81;100802.47;4165833;28;20091;-46
2021/12/29 05:33:46;;;;;;;3.50;2.55;;;;;;;18.84;39.60;100797.75;4166122;28;20041;-48
2021/12/29 05:35:48;;;;;;;3.67;2.63;;;;;;;18.82;39.77;100801.88;4165430;28;20465;-48
2021/12/29 05:37:50;;;;;;;3.47;2.85;;;;;;;18.82;39.92;100807.44;4166106;28;20112;-49
2021/12/29 05:39:51;;;;;;;2.95;2.60;;;;;;;18.82;40.06;100794.38;4165304;28;20092;-47
2021/12/29 05:41:52;;;;;;;2.90;2.55;;;;;;;18.79;39.92;100795.78;4165449;28;20096;-46
2021/12/29 05:43:54;;;;;;;2.92;2.35;;;;;;;18.81;40.10;100814.09;4165432;28;20099;-47
2021/12/29 05:45:58;;;;;;;3.30;2.67;;;;;;;18.75;40.06;100799.38;4165977;28;20030;-48
2021/12/29 05:48:01;;;;;;;3.55;2.70;;;;;;;18.77;40.00;100774.97;4165634;28;20037;-45
2021/12/29 05:50:05;;;;;;;2.67;2.47;;;;;;;18.77;39.91;100764.72;4165881;28;20033;-46
2021/12/29 05:52:06;;;;;;;3.83;2.70;;;;;;;18.78;39.98;100760.84;4165775;28;20030;-50
2021/12/29 05:54:07;;;;;;;3.60;2.53;;;;;;;18.79;39.99;100768.06;4165193;28;20053;-44
2021/12/29 05:56:09;;;;;;;3.20;2.47;;;;;;;18.78;39.90;100766.41;4165667;28;20076;-44
2021/12/29 05:58:11;;;;;;;3.13;2.75;;;;;;;18.76;40.17;100754.72;4164756;28;20041;-47
2021/12/29 06:00:16;;;;;;;2.50;2.22;;;;;;;18.76;40.04;100757.50;4164788;28;20041;-47
2021/12/29 06:02:17;;;;;;;3.85;2.95;;;;;;;18.75;39.76;100761.38;4163523;28;20045;-46
2021/12/29 06:04:18;;;;;;;3.38;2.70;;;;;;;18.77;40.07;100770.25;4165586;28;20365;-49
2021/12/29 06:06:20;;;;;;;3.22;2.70;;;;;;;18.76;39.85;100756.69;4165721;28;20552;-43
2021/12/29 06:08:21;;;;;;;2.40;2.20;;;;;;;18.75;39.85;100758.63;4164587;28;20105;-46
2021/12/29 06:10:23;;;;;;;4.13;2.67;;;;;;;18.74;40.14;100753.34;4165328;28;20033;-45
2021/12/29 06:12:24;;;;;;;3.05;2.60;;;;;;;18.71;39.93;100763.03;4164363;28;20091;-44
2021/12/29 06:14:26;;;;;;;2.55;2.35;;;;;;;18.74;40.11;100787.44;4164928;28;20100;-45
2021/12/29 06:16:27;;;;;;;3.20;2.50;;;;;;;18.72;39.72;100795.19;4163221;28;20102;-47
2021/12/29 06:18:29;;;;;;;3.33;2.90;;;;;;;18.72;39.86;100803.50;4165316;28;20378;-46
2021/12/29 06:20:30;;;;;;;3.03;2.42;;;;;;;18.66;40.18;100810.09;4165590;28;20021;-45
2021/12/29 06:22:34;;;;;;;3.25;2.42;;;;;;;18.71;39.88;100815.69;4164605;28;20045;-46
2021/12/29 06:24:37;;;;;;;4.43;3.03;;;;;;;18.70;40.01;100825.13;4165603;28;20119;-44
2021/12/29 06:26:45;;;;;;;2.78;2.35;;;;;;;18.70;40.05;100824.28;4165611;28;20045;-45
2021/12/29 06:28:46;;;;;;;2.95;2.65;;;;;;;18.70;40.00;100815.97;4164929;28;20404;-47
2021/12/29 06:30:48;;;;;;;3.42;2.70;;;;;;;18.70;40.24;100815.97;4164748;28;20092;-43
2021/12/29 06:32:52;;;;;;;2.78;2.35;;;;;;;18.69;40.22;100806.81;4164571;28;20444;-45
2021/12/29 06:34:54;;;;;;;4.07;2.80;;;;;;;18.61;39.80;100792.63;4165319;28;20022;-45
2021/12/29 06:36:59;;;;;;;2.47;2.28;;;;;;;18.68;39.86;100810.66;4164131;28;20041;-46
2021/12/29 06:39:00;;;;;;;3.40;2.72;;;;;;;18.70;39.87;100802.13;4162346;28;20473;-45
2021/12/29 06:41:02;;;;;;;3.28;2.45;;;;;;;18.68;39.88;100791.25;4164988;28;20424;-45
2021/12/29 06:43:03;;;;;;;3.38;2.60;;;;;;;18.68;39.77;100794.00;4163973;28;20511;-45
2021/12/29 06:45:06;;;;;;;2.78;2.42;;;;;;;18.63;40.02;100798.69;4162607;28;20045;-45
2021/12/29 06:47:08;;;;;;;3.38;2.83;;;;;;;18.66;40.23;100812.88;4164902;28;20543;-49
2021/12/29 06:49:11;;;;;;;4.47;2.75;;;;;;;18.69;39.89;100823.47;4164006;28;20111;-47
2021/12/29 06:51:13;;;;;;;3.05;2.60;;;;;;;18.68;39.91;100830.06;4164203;28;20037;-43
2021/12/29 06:53:14;;;;;;;3.65;3.10;;;;;;;18.67;40.14;100825.63;4164866;28;20087;-44
2021/12/29 06:55:18;;;;;;;3.97;2.75;;;;;;;18.66;39.72;100817.56;4164714;28;20087;-47
2021/12/29 06:57:20;;;;;;;3.38;2.50;;;;;;;18.66;40.14;100807.31;4164101;28;20045;-49
2021/12/29 06:59:21;;;;;;;3.20;2.75;;;;;;;18.63;39.93;100799.53;4164490;28;20090;-47
2021/12/29 07:01:23;;;;;;;3.50;2.75;;;;;;;18.64;39.91;100819.78;4164635;28;20029;-50
2021/12/29 07:03:25;;;;;;;2.65;2.45;;;;;;;18.65;40.01;100815.91;4164678;28;20087;-46
2021/12/29 07:05:30;;;;;;;3.17;2.50;;;;;;;18.64;40.02;100814.22;4164283;28;20111;-47
2021/12/29 07:07:32;;;;;;;3.30;2.50;;;;;;;18.59;39.89;100801.16;4164332;28;20029;-46
2021/12/29 07:09:33;;;;;;;3.15;2.58;;;;;;;18.39;39.85;100774.19;4164589;28;20428;-44
2021/12/29 07:11:36;;;;;;;2.97;2.50;;;;;;;18.62;40.34;100791.50;4164078;28;20041;-44
2021/12/29 07:13:38;;;;;;;3.60;2.47;;;;;;;18.61;40.34;100768.50;4164530;28;20037;-47
2021/12/29 07:15:39;;;;;;;4.00;2.78;;;;;;;18.62;40.22;100764.63;4163795;28;20033;-46
2021/12/29 07:17:40;;;;;;;2.53;2.30;;;;;;;18.62;39.94;100777.66;4163773;28;20041;-44
2021/12/29 07:19:42;;;;;;;3.67;2.53;;;;;;;18.62;40.22;100789.56;4164193;28;20049;-47
2021/12/29 07:21:46;;;;;;;4.00;3.28;;;;;;;18.62;40.22;100799.81;4164177;28;20045;-45
2021/12/29 07:23:48;;;;;;;3.78;2.63;;;;;;;18.62;40.11;100797.88;4163666;28;20088;-48
2021/12/29 07:25:51;;;;;;;3.40;2.70;;;;;;;18.60;39.93;100780.69;4164034;28;20042;-45
2021/12/29 07:27:54;;;;;;;3.33;3.03;;;;;;;18.59;40.19;100756.00;4164245;28;20091;-44
2021/12/29 07:29:56;;;;;;;3.45;2.67;;;;;;;18.60;40.19;100763.22;4164447;28;20079;-45
2021/12/29 07:31:58;;;;;;;3.35;2.58;;;;;;;18.52;40.09;100745.19;4164296;28;20033;-47
2021/12/29 07:34:03;;;;;;;2.95;2.65;;;;;;;18.53;40.10;100760.69;4164427;28;20030;-46
2021/12/29 07:36:04;;;;;;;4.13;3.00;;;;;;;18.57;40.33;100789.53;4164562;28;20083;-48
2021/12/29 07:38:06;;;;;;;3.40;2.80;;;;;;;18.59;40.16;100801.16;4164056;28;20103;-48
2021/12/29 07:40:10;;;;;;;3.10;2.58;;;;;;;18.56;39.97;100796.19;4163802;28;20042;-45
2021/12/29 07:42:12;;;;;;;3.25;2.72;;;;;;;18.58;39.88;100805.06;4162177;28;20083;-45
2021/12/29 07:44:16;;;;;;;3.63;2.58;;;;;;;18.58;40.28;100793.97;4164273;28;20033;-46
2021/12/29 07:46:21;;;;;;;3.53;2.70;;;;;;;18.54;39.82;100787.28;4163397;28;20041;-45
2021/12/29 07:48:27;;;;;;;4.82;2.90;;;;;;;18.58;39.96;100799.50;4163971;28;20025;-46
2021/12/29 07:50:28;;;;;;;2.90;2.60;;;;;;;18.56;40.23;100789.81;4163861;28;20041;-45
2021/12/29 07:52:29;;;;;;;2.78;2.50;;;;;;;18.55;39.92;100783.41;4164039;28;20375;-50
2021/12/29 07:54:31;;;;;;;3.22;2.85;;;;;;;18.54;40.19;100787.28;4164117;28;20055;-46
2021/12/29 07:56:35;;;;;;;4.00;3.08;;;;;;;18.51;40.35;100787.84;4164012;28;20045;-47
2021/12/29 07:58:37;;;;;;;2.88;2.38;;;;;;;18.55;40.25;100800.03;4163915;28;20026;-44
2021/12/29 08:00:38;;;;;;;4.85;3.15;;;;;;;18.53;40.00;100802.25;4163904;28;20444;-50
2021/12/29 08:02:43;;;;;;;3.17;2.58;;;;;;;18.49;40.17;100803.91;4164283;28;20025;-46
2021/12/29 08:04:47;;;;;;;3.15;2.78;;;;;;;18.53;40.15;100818.88;4166963;28;20045;-44
2021/12/29 08:06:54;;;;;;;3.47;2.50;;;;;;;18.53;40.16;100807.81;4167576;28;20045;-48
2021/12/29 08:08:55;;;;;;;4.13;3.00;;;;;;;18.54;40.34;100765.94;4166818;28;20041;-46
2021/12/29 08:10:57;;;;;;;3.28;2.70;;;;;;;18.52;40.17;100734.09;4182565;28;20503;-48
2021/12/29 08:12:58;;;;;;;3.05;2.55;;;;;;;18.53;39.84;100727.44;4166716;28;20153;-45
2021/12/29 08:14:59;;;;;;;3.05;2.75;;;;;;;18.50;39.90;100725.19;4166721;28;20089;-46
2021/12/29 08:17:02;;;;;;;2.95;2.65;;;;;;;18.48;40.25;100727.41;4166575;28;20034;-45
2021/12/29 08:19:05;;;;;;;3.15;2.85;;;;;;;18.52;40.17;100739.63;4166702;28;20122;-46
2021/12/29 08:21:09;;;;;;;2.75;2.50;;;;;;;18.45;39.91;100741.81;4167347;28;20111;-48
2021/12/29 08:23:11;;;;;;;3.55;2.78;;;;;;;18.47;40.35;100748.75;4166820;28;20049;-46
2021/12/29 08:25:13;;;;;;;3.22;2.90;;;;;;;18.47;40.21;100757.06;4167317;28;20543;-44
2021/12/29 08:27:14;;;;;;;2.90;2.65;;;;;;;18.49;40.27;100745.69;4167138;28;20519;-46
2021/12/29 08:29:16;;;;;;;3.20;2.60;;;;;;;18.51;40.31;100715.81;4166407;28;20037;-47
2021/12/29 08:31:17;;;;;;;3.05;2.60;;;;;;;18.51;39.83;100715.81;4166814;28;20041;-44
2021/12/29 08:33:19;;;;;;;3.83;2.80;;;;;;;18.51;40.24;100710.25;4166817;28;20053;-47
2021/12/29 08:35:21;;;;;;;3.50;2.53;;;;;;;18.50;39.97;100714.13;4166531;28;20037;-47
2021/12/29 08:37:22;;;;;;;3.72;2.95;;;;;;;18.44;40.10;100698.59;4166816;28;20064;-46
2021/12/29 08:39:25;;;;;;;3.00;2.65;;;;;;;18.48;40.35;100717.16;4166600;28;20425;-46
2021/12/29 08:41:26;;;;;;;3.65;2.70;;;;;;;18.48;39.94;100735.72;4166890;28;20592;-46
2021/12/29 08:43:28;;;;;;;3.38;2.70;;;;;;;18.49;40.17;100756.78;4166710;28;20103;-46
2021/12/29 08:45:32;;;;;;;3.22;2.92;;;;;;;18.49;39.97;100773.41;4166070;28;20080;-44
2021/12/29 08:47:33;;;;;;;2.95;2.65;;;;;;;18.48;39.90;100771.75;4166403;28;20431;-44
2021/12/29 08:49:35;;;;;;;2.70;2.30;;;;;;;18.48;40.43;100771.75;4165852;28;20095;-46
2021/12/29 08:51:36;;;;;;;3.17;2.80;;;;;;;18.47;40.17;100768.16;4166628;28;20025;-45
2021/12/29 08:53:38;;;;;;;3.45;2.55;;;;;;;18.47;40.08;100775.63;4165960;28;20033;-44
2021/12/29 08:55:46;;;;;;;3.00;2.70;;;;;;;18.51;39.83;100768.44;4166663;28;20041;-44
2021/12/29 08:57:48;;;;;;;3.03;2.72;;;;;;;18.50;40.02;100755.69;4165731;28;20107;-44
2021/12/29 08:59:49;;;;;;;2.90;2.58;;;;;;;18.51;40.07;100749.06;4166654;28;20025;-48
2021/12/29 09:01:54;;;;;;;3.75;3.00;;;;;;;18.52;40.12;100759.84;4166475;28;20083;-47
2021/12/29 09:03:55;;;;;;;3.58;2.67;;;;;;;18.53;40.00;100752.38;4166712;28;20029;-47
2021/12/29 09:05:57;;;;;;;3.40;3.10;;;;;;;18.54;39.82;100742.97;4166490;28;20079;-45
2021/12/29 09:07:58;;;;;;;4.07;3.00;;;;;;;18.56;39.82;100764.88;4166174;28;20033;-44
2021/12/29 09:10:00;;;;;;;4.20;2.83;;;;;;;18.56;39.76;100760.16;4166456;28;20025;-44
2021/12/29 09:12:02;;;;;;;3.45;3.00;;;;;;;18.57;40.04;100759.06;4166203;28;20034;-45
2021/12/29 09:14:04;;;;;;;3.40;2.70;;;;;;;18.58;39.84;100771.78;4164667;28;20041;-44
2021/12/29 09:16:06;;;;;;;3.60;3.10;;;;;;;18.60;39.81;100752.97;4164261;28;20045;-46
2021/12/29 09:18:07;;;;;;;2.40;2.20;;;;;;;18.60;39.75;100757.66;4165985;28;20022;-44
2021/12/29 09:20:24;;;;;;;4.20;3.10;;;;;;;18.64;39.85;100754.09;4165716;28;20134;-46
2021/12/29 09:22:26;;;;;;;4.15;2.90;;;;;;;18.67;39.75;100763.81;4165304;28;20050;-44
2021/12/29 09:24:30;;;;;;;3.42;2.83;;;;;;;18.67;40.18;100745.25;4166195;28;20034;-47
2021/12/29 09:26:32;;;;;;;3.28;2.72;;;;;;;18.67;40.01;100756.31;4165354;28;20037;-44
2021/12/29 09:28:39;;;;;;;3.50;2.90;;;;;;;18.65;40.15;100744.69;4165534;28;20095;-44
2021/12/29 09:30:43;;;;;;;4.45;3.40;;;;;;;18.70;39.89;100735.59;4165543;28;20400;-44
2021/12/29 09:32:44;;;;;;;3.28;2.88;;;;;;;18.70;40.04;100725.34;4166004;28;20068;-45